Pagina principale
METAR-TAF:

METAR-TAF

Aeroporti :

Aeroporto di Basilea-Mulhouse-Friburgo

Basilea-Mulhouse, Francia

latitudine: 47-36N, longitudine: 007-31E, altezza: 270 m

Osservazione

Il bollettino è stato emesso 32 minuti fa, alle 20:00 UTC
Vento 5 kt da ovest/nord-ovest
Temperature 20°C
Umidità 78%
Pressione 1018 hPa
Visibilità 10 km o più
nessuna nube inferiore a 1500 m e nessun cumulonembo

METAR: LFSB 162000Z 30005KT CAVOK 20/16 Q1018 NOSIG

Ora: 22:32 (20:32 UTC)

Previsione

Il bollettino è stato emesso 3 ore e 32 minuti fa, alle 17:00 UTC
Previsione valida dal 16 alle 18 UTC al 17 alle 18 UTC
Vento 5 kt da ovest/nord-ovest
Visibilità 10 km o più
nessuna nube inferiore a 1500 m e nessun cumulonembo
Temporaneamente
dal 17 alle 11 UTC al 17 alle 18 UTC
Vento 10 kt da nord
Nuvoloso ad un'altezza di 4500 ft

TAF: LFSB 161700Z 1618/1718 29005KT CAVOK TEMPO 1711/1718 35010KT BKN045

Osservazioni e previsioni meteorologiche di più di 4000 aeroporti (messaggi METAR e TAF).

Le stazioni disponibili sono rappresentate dai dischi gialli e rossi sulla carta.

Puntare il mouse per vedere il nome della stazione.

Clicca sopra per visualizzare le osservazioni e previsioni meteorologiche.

Per cambiare la mappa : fare clic sui pulsanti verdi con una croce nera per ingrandire, il pulsante verde con un trattino per diminuire, o sulla freccia verde per le mappe adiacenti.


METAR-TAF: